Latest Weather Observations for Walpole North

IDW60801

Issued at 12:02 pm WST Thursday 3 September 2015 (issued every 30 minutes, with the page automatically refreshed every 10 minutes)

About weather observations | Map of weather stations | Latest weather observations for WA | Other Formats
Station Details ID: 009998 Name: NORTH WALPOLE Lat: -34.95 Lon: 116.72 Height: 73.0 m
Data from the previous 72 hours. | See also: Recent months at Walpole North
Date/Time
WST
Temp
°C
App
Temp
°C
Dew
Point
Rel
Hum
%
Delta-T
°C
Wind Press
QNH
hPa
Press
MSL
hPa
Rain
since 9 am
mm
Dir
 
Spd
km/h
Gust
km/h
Spd
kts
Gust
kts
03/12:00pm 14.3 12.3 6.2 58 3.9 NNE 6 13 3 7 1024.4 1024.4 0.0
03/11:30am 14.0 11.4 5.9 58 3.8 ENE 9 17 5 9 1024.7 1024.7 0.0
03/11:00am 13.8 11.2 5.9 59 3.7 ENE 9 15 5 8 1024.9 1024.9 0.0
03/10:30am 14.5 12.0 8.0 65 3.3 ENE 11 19 6 10 1024.9 1024.9 0.0
03/10:00am 13.3 10.3 7.7 69 2.7 ENE 13 20 7 11 1025.2 1025.2 0.0
03/09:30am 12.6 9.9 7.5 71 2.5 ENE 11 17 6 9 1025.6 1025.6 0.0
03/09:00am 11.9 9.9 7.0 72 2.3 NE 7 13 4 7 1025.8 1025.8 0.0
03/08:30am 11.5 9.8 7.6 77 1.9 NE 6 11 3 6 1025.9 1025.9 0.0
03/08:00am 10.0 8.0 7.3 83 1.3 NNE 7 11 4 6 1026.0 1026.0 0.0
03/07:30am 8.4 6.2 6.2 86 1.0 NNE 7 9 4 5 1025.9 1025.9 0.0
03/07:00am 7.6 5.4 5.2 85 1.1 N 6 9 3 5 1025.9 1025.9 0.0
03/06:30am 7.7 6.5 4.8 82 1.3 CALM 0 0 0 0 1025.8 1025.8 0.0
03/06:00am 8.1 5.6 5.0 81 1.4 N 7 9 4 5 1025.6 1025.6 0.0
03/05:30am 8.5 6.0 4.7 77 1.7 N 7 15 4 8 1025.7 1025.7 0.0
03/05:00am 9.2 5.6 5.2 76 1.8 N 13 22 7 12 1025.5 1025.5 0.0
03/04:30am 9.9 6.4 5.3 73 2.1 NNE 13 19 7 10 1025.4 1025.4 0.0
03/04:00am 10.1 6.5 4.9 70 2.3 NNE 13 17 7 9 1025.5 1025.5 0.0
03/03:30am 10.6 7.0 4.9 68 2.6 NNE 13 20 7 11 1025.5 1025.5 0.0
03/03:00am 10.5 7.6 6.6 77 1.8 NNE 11 17 6 9 1025.5 1025.5 0.0
03/02:30am 9.7 7.9 8.1 90 0.8 NNE 7 13 4 7 1025.6 1025.6 0.0
03/02:00am 9.1 8.6 7.9 92 0.6 CALM 0 0 0 0 1025.8 1025.8 0.0
03/01:30am 9.1 8.6 7.7 91 0.7 CALM 0 0 0 0 1026.1 1026.1 0.0
03/01:00am 9.4 8.5 7.8 90 0.8 SSE 2 11 1 6 1026.2 1026.2 0.0
03/12:30am 9.3 8.8 7.7 90 0.8 CALM 0 0 0 0 1026.4 1026.4 0.0
03/12:00am 9.5 9.0 7.8 89 0.8 CALM 0 0 0 0 1026.3 1026.3 0.0
 
Date/Time
WST
Temp
°C
App
Temp
°C
Dew
Point
Rel
Hum
%
Delta-T
°C
Wind Press
QNH
hPa
Press
MSL
hPa
Rain
since 9 am
mm
Dir
 
Spd
km/h
Gust
km/h
Spd
kts
Gust
kts
02/11:30pm 9.6 8.7 7.7 88 0.9 ESE 2 6 1 3 1026.7 1026.7 0.0
02/11:00pm 10.0 8.4 7.8 86 1.1 WSW 6 9 3 5 1027.0 1027.0 0.0
02/10:30pm 10.1 8.2 7.7 85 1.2 E 7 11 4 6 1027.2 1027.2 0.0
02/10:00pm 10.5 8.3 7.7 83 1.3 NE 9 15 5 8 1027.4 1027.4 0.0
02/09:30pm 10.7 8.8 7.4 80 1.6 NE 7 11 4 6 1027.4 1027.4 0.0
02/09:00pm 10.8 9.0 7.3 79 1.7 NE 6 9 3 5 1027.3 1027.3 0.0
02/08:30pm 10.8 8.8 7.1 78 1.8 NE 7 9 4 5 1027.4 1027.4 0.0
02/08:00pm 10.9 8.9 7.2 78 1.8 NE 7 11 4 6 1027.5 1027.5 0.0
02/07:30pm 11.0 10.3 6.9 76 2.0 CALM 0 0 0 0 1027.3 1027.3 0.0
02/07:00pm 10.6 9.8 6.7 77 1.8 CALM 0 0 0 0 1027.1 1027.1 0.0
02/06:30pm 11.2 10.4 6.7 74 2.1 CALM 0 0 0 0 1026.9 1026.9 0.0
02/06:00pm 11.2 10.4 6.7 74 2.1 CALM 0 0 0 0 1026.6 1026.6 0.0
02/05:30pm 11.8 11.0 6.7 71 2.4 CALM 0 0 0 0 1026.3 1026.3 0.0
02/05:00pm 12.0 9.9 6.7 70 2.5 SE 7 9 4 5 1026.2 1026.2 0.0
02/04:30pm 12.2 10.1 6.5 68 2.7 SE 7 11 4 6 1026.2 1026.2 0.0
02/04:00pm 12.5 10.2 5.9 64 3.1 SSE 7 13 4 7 1026.2 1026.2 0.0
02/03:30pm 12.7 9.7 5.8 63 3.3 SE 11 19 6 10 1026.2 1026.2 0.0
02/03:00pm 12.9 9.9 6.0 63 3.2 SE 11 15 6 8 1026.1 1026.1 0.0
02/02:30pm 13.1 10.6 6.7 65 3.1 SSE 9 17 5 9 1026.1 1026.1 0.0
02/02:00pm 13.0 10.4 6.1 63 3.3 S 9 15 5 8 1026.1 1026.1 0.0
02/01:30pm 13.4 10.8 6.0 61 3.5 SSE 9 15 5 8 1026.3 1026.3 0.0
02/01:00pm 13.1 10.1 6.2 63 3.3 SSE 11 19 6 10 1026.5 1026.5 0.0
02/12:30pm 13.4 10.9 6.7 64 3.2 SSE 9 19 5 10 1026.8 1026.8 0.0
02/12:00pm 13.2 10.7 6.5 64 3.2 S 9 17 5 9 1027.2 1027.2 0.0
02/11:30am 12.9 10.3 6.0 63 3.3 S 9 15 5 8 1027.5 1027.5 0.0
02/11:00am 12.9 10.5 5.1 59 3.6 SSE 7 13 4 7 1027.7 1027.7 0.0
02/10:30am 13.1 10.6 5.0 58 3.8 SSE 7 13 4 7 1027.9 1027.9 0.0
02/10:00am 12.9 10.0 4.8 58 3.7 S 9 17 5 9 1027.9 1027.9 0.0
02/09:30am 12.9 11.2 6.0 63 3.3 S 4 13 2 7 1028.0 1028.0 0.0
02/09:00am 11.8 10.9 6.1 68 2.7 CALM 0 0 0 0 1027.9 1027.9 0.2
02/08:30am 10.9 10.1 6.3 73 2.2 CALM 0 0 0 0 1027.8 1027.8 0.2
02/08:00am 10.7 9.9 6.3 74 2.0 CALM 0 0 0 0 1027.5 1027.5 0.2
02/07:30am 9.2 8.1 5.2 76 1.8 CALM 0 0 0 0 1027.1 1027.1 0.2
02/07:00am 8.7 7.5 4.7 76 1.8 CALM 0 4 0 2 1026.8 1026.8 0.2
02/06:30am 8.4 7.2 4.4 76 1.8 CALM 0 0 0 0 1026.6 1026.6 0.2
02/06:00am 8.4 7.1 4.2 75 1.8 CALM 0 0 0 0 1026.3 1026.3 0.2
02/05:30am 8.6 7.3 4.2 74 1.9 CALM 0 0 0 0 1026.1 1026.1 0.2
02/05:00am 9.2 8.0 4.6 73 2.0 CALM 0 0 0 0 1026.0 1026.0 0.2
02/04:30am 9.4 8.3 5.0 74 2.0 CALM 0 0 0 0 1025.7 1025.7 0.2
02/04:00am 9.4 8.3 5.2 75 1.9 CALM 0 0 0 0 1025.6 1025.6 0.2
02/03:30am 9.6 8.5 5.2 74 2.0 CALM 0 0 0 0 1025.8 1025.8 0.2
02/03:00am 9.9 8.8 5.1 72 2.2 CALM 0 4 0 2 1025.7 1025.7 0.2
02/02:30am 10.6 9.1 5.2 69 2.5 S 2 11 1 6 1025.9 1025.9 0.2
02/02:00am 10.5 9.1 5.3 70 2.4 SSE 2 9 1 5 1025.8 1025.8 0.2
02/01:30am 10.2 7.4 5.0 70 2.4 SSW 9 13 5 7 1026.0 1026.0 0.2
02/01:00am 10.3 9.1 4.7 68 2.5 CALM 0 0 0 0 1025.9 1025.9 0.2
02/12:30am 10.4 7.7 3.9 64 2.9 SSW 7 11 4 6 1026.0 1026.0 0.2
02/12:00am 10.5 6.4 4.4 66 2.7 SSW 15 22 8 12 1025.9 1025.9 0.2
 
Date/Time
WST
Temp
°C
App
Temp
°C
Dew
Point
Rel
Hum
%
Delta-T
°C
Wind Press
QNH
hPa
Press
MSL
hPa
Rain
since 9 am
mm
Dir
 
Spd
km/h
Gust
km/h
Spd
kts
Gust
kts
01/11:30pm 10.4 7.5 4.8 68 2.5 SSW 9 19 5 10 1025.9 1025.9 0.2
01/11:00pm 10.4 7.4 4.3 66 2.7 SSW 9 17 5 9 1026.2 1026.2 0.2
01/10:30pm 10.4 7.1 4.3 66 2.7 S 11 19 6 10 1026.3 1026.3 0.2
01/10:00pm 10.7 7.1 4.8 67 2.7 S 13 24 7 13 1026.1 1026.1 0.2
01/09:30pm 10.5 7.6 4.9 68 2.5 S 9 20 5 11 1025.7 1025.7 0.2
01/09:00pm 10.5 7.6 4.9 68 2.5 S 9 17 5 9 1025.5 1025.5 0.2
01/08:30pm 10.1 7.3 5.1 71 2.3 S 9 17 5 9 1025.2 1025.2 0.2
01/08:00pm 9.6 7.3 4.8 72 2.1 S 6 15 3 8 1025.4 1025.4 0.2
01/07:30pm 9.1 6.8 4.9 75 1.9 SSW 6 17 3 9 1025.3 1025.3 0.2
01/07:00pm 9.2 8.0 4.6 73 2.0 CALM 0 4 0 2 1025.1 1025.1 0.2
01/06:30pm 9.8 6.9 4.6 70 2.3 SSW 9 20 5 11 1025.1 1025.1 0.2
01/06:00pm 10.0 7.9 4.0 66 2.6 SSW 4 11 2 6 1024.7 1024.7 0.2
01/05:30pm 10.6 7.8 3.4 61 3.2 SSE 7 17 4 9 1024.3 1024.3 0.2
01/05:00pm 11.0 7.9 3.5 60 3.3 S 9 24 5 13 1023.9 1023.9 0.2
01/04:30pm 11.6 7.5 4.1 60 3.4 S 15 30 8 16 1023.8 1023.8 0.2
01/04:00pm 11.5 8.5 4.0 60 3.3 S 9 17 5 9 1023.6 1023.6 0.2
01/03:30pm 12.1 8.2 3.3 55 3.9 S 13 26 7 14 1023.3 1023.3 0.0
01/03:00pm 11.9 8.3 4.9 62 3.2 S 13 26 7 14 1023.1 1023.1 0.0
01/02:30pm 12.0 7.8 4.0 58 3.6 SSE 15 33 8 18 1023.0 1023.0 0.0
01/02:00pm 11.6 7.4 5.5 66 2.8 S 17 35 9 19 1022.8 1022.8 0.0
01/01:30pm 11.9 7.9 4.9 62 3.2 S 15 28 8 15 1022.7 1022.7 0.0
01/01:00pm 11.2 7.2 6.5 73 2.2 S 17 26 9 14 1022.8 1022.8 0.0
01/12:30pm 11.9 6.9 4.6 61 3.3 S 20 35 11 19 1022.9 1022.9 0.0
01/12:00pm 12.2 7.9 5.4 63 3.1 S 17 35 9 19 1022.7 1022.7 0.0
01/11:30am 11.8 7.8 4.8 62 3.2 S 15 32 8 17 1022.7 1022.7 0.0
01/11:00am 10.3 5.3 4.7 68 2.5 S 20 41 11 22 1022.8 1022.8 0.0
01/10:30am 10.7 3.8 4.6 66 2.8 SSW 30 46 16 25 1022.8 1022.8 0.0
01/10:13am 10.1 2.8 4.3 67 2.6 SSW 32 52 17 28 1022.7 1022.7 0.0
01/10:00am 11.1 5.1 3.4 59 3.4 SSW 24 35 13 19 1022.4 1022.4 0.0
01/09:30am 10.8 5.6 3.6 61 3.2 S 20 35 11 19 1022.0 1022.0 0.0
01/09:02am 9.8 3.1 3.5 65 2.8 S 28 46 15 25 1021.8 1021.8 0.0
01/09:00am 10.1 3.0 3.4 63 2.9 S 30 46 16 25 1021.6 1021.6 17.8
01/08:57am 10.4 3.7 3.7 63 3.0 S 28 46 15 25 1021.7 1021.7 17.8
01/08:30am 9.6 2.8 3.1 64 2.8 SSW 28 43 15 23 1021.3 1021.3 17.8
01/08:00am 9.8 3.2 4.4 69 2.4 S 28 44 15 24 1021.1 1021.1 17.8
01/07:33am 8.3 1.6 3.4 71 2.1 SSW 28 46 15 25 1020.8 1020.8 17.8
01/07:30am 8.5 1.8 3.4 70 2.2 SSW 28 43 15 23 1020.8 1020.8 17.8
01/07:00am 7.6 1.1 2.9 72 2.0 SSW 26 37 14 20 1020.4 1020.4 17.8
01/06:31am 7.5 -0.1 2.8 72 2.0 SSW 32 50 17 27 1020.0 1020.0 17.8
01/06:30am 7.8 0.0 2.9 71 2.1 SSW 33 50 18 27 1020.2 1020.2 17.8
01/06:12am 8.1 1.4 3.6 73 1.9 SSW 28 44 15 24 1019.6 1019.7 17.8
01/06:00am 8.0 3.4 3.5 73 1.9 SW 17 26 9 14 1019.3 1019.4 17.8
01/05:33am 7.6 0.8 3.1 73 1.9 SSW 28 46 15 25 1019.1 1019.2 17.8
01/05:30am 7.6 1.9 3.1 73 1.9 SSW 22 46 12 25 1019.1 1019.2 17.8
01/05:05am 7.4 0.5 2.7 72 2.0 SSW 28 52 15 28 1018.8 1018.8 17.8
01/05:00am 7.6 1.5 2.5 70 2.1 SSW 24 52 13 28 1018.8 1018.8 17.8
01/04:30am 8.1 1.8 1.7 64 2.6 SSW 24 43 13 23 1018.5 1018.5 17.6
01/04:09am 8.3 1.3 1.7 63 2.7 SSW 28 46 15 25 1018.2 1018.2 17.6
01/04:00am 8.3 2.7 1.2 61 2.9 SSW 20 35 11 19 1018.1 1018.1 17.6
01/03:30am 7.6 1.4 2.3 69 2.2 SSW 24 39 13 21 1017.7 1017.7 17.6
01/03:00am 7.6 1.4 2.3 69 2.2 SW 24 41 13 22 1017.7 1017.7 17.6
01/02:30am 8.3 2.4 1.7 63 2.7 SSW 22 32 12 17 1017.5 1017.5 17.6
01/02:00am 8.3 1.9 1.0 60 3.0 SSW 24 39 13 21 1017.8 1017.8 17.6
01/01:33am 8.3 1.1 0.8 59 3.0 SSW 28 46 15 25 1017.5 1017.5 17.6
01/01:30am 8.4 1.6 1.1 60 3.0 SSW 26 46 14 25 1017.5 1017.5 17.6
01/01:00am 8.1 3.7 2.6 68 2.3 SSW 15 24 8 13 1017.4 1017.4 17.6
01/12:30am 8.3 2.8 2.1 65 2.6 SW 20 35 11 19 1017.3 1017.3 17.6
01/12:00am 8.3 3.4 1.9 64 2.6 SW 17 30 9 16 1016.9 1016.9 17.6
 
Date/Time
WST
Temp
°C
App
Temp
°C
Dew
Point
Rel
Hum
%
Delta-T
°C
Wind Press
QNH
hPa
Press
MSL
hPa
Rain
since 9 am
mm
Dir
 
Spd
km/h
Gust
km/h
Spd
kts
Gust
kts
31/11:30pm 8.2 2.4 2.2 66 2.5 SSW 22 35 12 19 1017.0 1017.0 17.6
31/11:00pm 7.5 1.7 2.4 70 2.1 SSW 22 35 12 19 1017.2 1017.2 17.6
31/10:30pm 7.6 -0.3 2.1 68 2.3 SSW 33 61 18 33 1017.1 1017.1 17.6
31/10:23pm 8.3 1.6 3.4 71 2.1 SSW 28 48 15 26 1016.9 1016.9 17.6
31/10:00pm 8.2 2.6 3.3 71 2.1 SSW 22 35 12 19 1016.7 1016.7 17.6
31/09:30pm 7.7 2.3 4.7 81 1.3 SSW 22 35 12 19 1016.5 1016.5 17.6
31/09:00pm 6.9 0.8 4.7 86 1.0 SW 26 41 14 22 1016.4 1016.4 17.6
31/08:55pm 6.8 0.3 4.8 87 0.9 SW 28 54 15 29 1016.6 1016.6 17.6
31/08:30pm 7.4 3.2 5.7 89 0.8 WSW 17 26 9 14 1016.7 1016.7 17.0
31/08:00pm 7.5 2.4 5.8 89 0.8 SSW 22 35 12 19 1016.1 1016.1 15.8
31/07:47pm 7.3 3.5 5.6 89 0.8 WSW 15 48 8 26 1016.0 1016.0 15.4
31/07:30pm 6.6 2.9 4.4 86 1.0 W 13 20 7 11 1015.8 1015.8 15.4
31/07:16pm 7.1 0.5 4.1 81 1.3 SW 28 50 15 27 1016.0 1016.0 14.8
31/07:00pm 8.6 3.4 5.5 81 1.4 SW 22 37 12 20 1015.3 1015.3 13.4
31/06:30pm 8.8 4.0 5.7 81 1.4 SW 20 37 11 20 1014.9 1014.9 13.4
31/06:00pm 9.9 6.1 5.9 76 1.8 SW 15 26 8 14 1014.5 1014.5 13.4
31/05:30pm 10.4 4.8 5.6 72 2.2 WSW 24 39 13 21 1014.2 1014.2 13.2
31/05:00pm 10.7 5.7 6.3 74 2.1 WSW 22 35 12 19 1013.6 1013.6 13.0
31/04:30pm 11.1 7.1 6.5 73 2.2 WSW 17 28 9 15 1013.3 1013.3 13.0
31/04:00pm 10.9 7.3 8.5 85 1.2 SW 17 32 9 17 1013.3 1013.3 13.0
31/03:30pm 10.3 7.7 9.4 94 0.5 SW 13 22 7 12 1013.2 1013.2 13.0
31/03:00pm 9.9 6.9 9.1 95 0.4 SSW 15 24 8 13 1012.8 1012.8 13.0
31/02:30pm 9.0 6.0 7.9 93 0.5 WSW 13 20 7 11 1012.4 1012.4 12.4
31/02:00pm 8.6 4.1 7.1 90 0.7 SW 20 39 11 21 1012.8 1012.8 11.0
31/01:50pm 9.7 5.6 8.0 89 0.8 W 19 39 10 21 1013.1 1013.1 9.0
31/01:30pm 11.5 9.9 10.2 92 0.7 W 9 15 5 8 1012.1 1012.1 8.0
31/01:00pm 11.4 8.6 10.1 92 0.7 W 15 20 8 11 1012.4 1012.4 7.6
31/12:30pm 11.5 10.0 10.4 93 0.6 W 9 15 5 8 1012.6 1012.6 7.6

Other Formats:

Comma delimited format used in spreadsheet applications
http://www.bom.gov.au/fwo/IDW60801/IDW60801.95647.axf

JavaScript Object Notation format (JSON) in row-major order
http://www.bom.gov.au/fwo/IDW60801/IDW60801.95647.json